Trengail Manor, MD

9:18 AM EDT on March 24, 2017 (GMT -0400)
HCC | | Change Station
Active Advisory: Freezing Rain Advisory

Elev 545 ft 39.63 °N, 77.67 °W | Updated 4 minutes ago

Rain
Rain
34.9 °F
Feels Like 31 °F
N
4.0
Wind Variable Wind from SSE
Gusts 12.0 mph

Today
High -- | Low -- °F
--% Chance of Precip.
Yesterday
High -- | Low -- °F
Precip. -- in
Pressure 30.41 in
Visibility 8.0 miles
Clouds Few 5500 ft
Mostly Cloudy 7500 ft
Overcast 9000 ft
Windchill 31 °F
Dew Point 29 °F
Humidity 79%
Rainfall 0.05 in
Snow Depth Not available.
7:07 AM 7:26 PM
Waning Crescent, 15% visible
METAR KHGR 241253Z 16011KT 8SM -RA FEW055 BKN075 OVC090 02/M02 A3036 RMK AO2 RAB1156 SLP296 P0005 T00221017
Pressure 30.41 in
Visibility 8.0 miles
Clouds Few 5500 ft
Mostly Cloudy 7500 ft
Overcast 9000 ft
Windchill 31 °F
Dew Point 29 °F
Humidity 79%
Rainfall 0.05 in
Snow Depth Not available.
7:07 AM 7:26 PM
Waning Crescent, 15% visible
METAR KHGR 241253Z 16011KT 8SM -RA FEW055 BKN075 OVC090 02/M02 A3036 RMK AO2 RAB1156 SLP296 P0005 T00221017

Get Your Daily Forecast Email!

Thanks for signing up!

Be on the lookout for a verification email in your inbox.

You'll start receiving severe weather alerts in your inbox..

×

10-Day Weather Forecast

Almanac

Astronomy

Mar. 24, 2017 Rise Set
Actual Time
Civil Twilight
Nautical Twilight
Astronomical Twilight
Moon
Length of Visible Light
Length of Day
Tomorrow will be .
, % of the Moon is Illuminated

Today's Extremes

State Highs State Lows

Community

WunderPhotos

Upload Photos

1,962,540 photos uploaded!

WunderBlog® & News

Nearby

Air Quality

  Air Quality AQ Index Pollutant
Not available.

Snow Depth

Station Depth Elevation

Earthquake Activity

City Distance Mag. Time & Date
Minimum magnitude displayed is 2.5.

Earthquake Activity

City Distance Mag. Time & Date
Minimum magnitude displayed is 2.5.

Coastal Water Temperatures

Place Temperature

Stations

Nearby Weather Stations

Station Location Temp. Windchill Dew Point Humidity Wind Precip. Elev Updated Type
                   

Watches & Warnings

Freezing Rain Advisory
Issued: 8:59 AM EDT Mar. 24, 2017 – National Weather Service

... Freezing Rain Advisory now in effect until 10 am EDT this
morning...

* hazard types... black ice from patchy areas of freezing rain.

* Ice accumulations... around a trace.

* Timing... through 10 am EDT this morning.

* Impacts... light icing mainly on elevated surfaces.

* Winds... south 5 mph or less.

* Temperatures... around 40.

Precautionary/preparedness actions...

A Freezing Rain Advisory means that periods of freezing rain or
freezing drizzle will cause travel difficulties. Be prepared for
slippery roads. Slow down and use caution while driving.